createdAt,value
2022-07-25T00:01:59.427Z,101035.22
2022-07-25T00:04:27.777Z,101042.00
2022-07-25T00:06:54.985Z,101034.69
2022-07-25T00:09:22.176Z,101032.59
2022-07-25T00:11:49.407Z,101032.16
2022-07-25T00:14:16.475Z,101038.50
2022-07-25T00:16:43.504Z,101033.59
2022-07-25T00:19:11.288Z,101025.09
2022-07-25T00:21:38.287Z,101017.88
2022-07-25T00:24:07.373Z,101014.97
2022-07-25T00:26:39.742Z,101016.88
2022-07-25T00:29:07.555Z,101006.84
2022-07-25T00:31:35.015Z,101009.66
2022-07-25T00:34:03.484Z,101013.16
2022-07-25T00:36:30.704Z,101013.16
2022-07-25T00:38:57.775Z,101004.66
2022-07-25T00:41:24.948Z,101012.63
2022-07-25T00:43:51.974Z,101015.69
2022-07-25T00:46:19.417Z,101001.66
2022-07-25T00:48:48.420Z,101002.84
2022-07-25T00:51:17.898Z,101004.66
2022-07-25T00:53:46.783Z,101000.31
2022-07-25T00:56:14.804Z,100991.91
2022-07-25T00:58:41.805Z,100986.38
2022-07-25T01:01:08.987Z,100992.91
2022-07-25T01:03:36.050Z,100986.59
2022-07-25T01:06:03.701Z,100991.34
2022-07-25T01:08:32.343Z,100981.78
2022-07-25T01:10:59.604Z,100979.88
2022-07-25T01:13:26.625Z,100977.16
2022-07-25T01:15:53.664Z,100973.75
2022-07-25T01:18:20.782Z,100974.91
2022-07-25T01:20:48.129Z,100974.91
2022-07-25T01:23:15.156Z,100971.66
2022-07-25T01:25:42.292Z,100967.69
2022-07-25T01:28:09.388Z,100965.78
2022-07-25T01:30:36.560Z,100965.38
2022-07-25T01:33:06.795Z,100966.19
2022-07-25T01:35:34.478Z,100966.13
2022-07-25T01:38:01.570Z,100963.16
2022-07-25T01:40:28.735Z,100960.97
2022-07-25T01:42:55.726Z,100960.91
2022-07-25T01:45:23.001Z,100961.69
2022-07-25T01:47:49.992Z,100961.16
2022-07-25T01:50:17.164Z,100950.22
2022-07-25T01:52:44.421Z,100944.88
2022-07-25T01:55:11.673Z,100948.78
2022-07-25T01:57:41.236Z,100948.34
2022-07-25T02:00:18.166Z,100939.81
2022-07-25T02:02:46.332Z,100941.38
2022-07-25T02:05:15.844Z,100943.56
2022-07-25T02:07:42.895Z,100936.69
2022-07-25T02:10:10.545Z,100934.34
2022-07-25T02:12:37.639Z,100938.66
2022-07-25T02:15:05.549Z,100933.78
2022-07-25T02:17:32.610Z,100927.19
2022-07-25T02:19:59.664Z,100928.72
2022-07-25T02:22:26.707Z,100937.75
2022-07-25T02:24:53.749Z,100922.97
2022-07-25T02:27:20.781Z,100920.97
2022-07-25T02:29:47.813Z,100915.25
2022-07-25T02:32:14.792Z,100915.25
2022-07-25T02:34:41.773Z,100920.16
2022-07-25T02:37:08.775Z,100914.09
2022-07-25T02:39:35.773Z,100918.16
2022-07-25T02:42:02.785Z,100914.09
2022-07-25T02:44:29.905Z,100909.19
2022-07-25T02:46:56.922Z,100909.47
2022-07-25T02:49:23.930Z,100904.34
2022-07-25T02:51:51.004Z,100892.03
2022-07-25T02:54:18.057Z,100887.53
2022-07-25T02:56:45.037Z,100891.47
2022-07-25T02:59:12.038Z,100887.06
2022-07-25T03:01:39.154Z,100883.47
2022-07-25T03:04:06.856Z,100892.69
2022-07-25T03:06:34.672Z,100894.84
2022-07-25T03:09:02.299Z,100889.84
2022-07-25T03:11:29.487Z,100894.66
2022-07-25T03:13:56.525Z,100881.91
2022-07-25T03:16:23.646Z,100883.44
2022-07-25T03:18:50.653Z,100880.28
2022-07-25T03:21:17.782Z,100870.25
2022-07-25T03:23:50.467Z,100861.50
2022-07-25T03:26:19.620Z,100863.22
2022-07-25T03:28:46.627Z,100863.41
2022-07-25T03:31:13.741Z,100857.81
2022-07-25T03:33:40.757Z,100855.34
2022-07-25T03:36:08.318Z,100860.97
2022-07-25T03:38:35.297Z,100851.38
2022-07-25T03:41:02.270Z,100851.81
2022-07-25T03:43:31.163Z,100851.38
2022-07-25T03:45:58.312Z,100852.56
2022-07-25T03:48:25.381Z,100846.97
2022-07-25T03:50:52.436Z,100844.72
2022-07-25T03:53:19.425Z,100841.16
2022-07-25T03:55:46.503Z,100844.06
2022-07-25T03:58:13.639Z,100839.72
2022-07-25T04:00:40.697Z,100838.06
2022-07-25T04:03:08.208Z,100835.13
2022-07-25T04:05:35.251Z,100837.00
2022-07-25T04:08:02.253Z,100829.41
2022-07-25T04:10:29.237Z,100840.25
2022-07-25T04:12:56.224Z,100827.16
2022-07-25T04:15:23.233Z,100843.88
2022-07-25T04:17:50.278Z,100833.81
2022-07-25T04:20:17.423Z,100834.66
2022-07-25T04:22:46.910Z,100826.97
2022-07-25T04:25:14.454Z,100827.41
2022-07-25T04:27:41.467Z,100828.31
2022-07-25T04:30:10.654Z,100816.91
2022-07-25T04:32:37.750Z,100821.41
2022-07-25T04:35:05.694Z,100819.50
2022-07-25T04:37:32.879Z,100807.22
2022-07-25T04:39:59.895Z,100815.78
2022-07-25T04:42:28.027Z,100800.75
2022-07-25T04:44:55.013Z,100803.78
2022-07-25T04:47:22.077Z,100787.53
2022-07-25T04:49:49.340Z,100792.44
2022-07-25T04:52:16.537Z,100793.72
2022-07-25T04:54:43.579Z,100791.44
2022-07-25T04:57:10.575Z,100777.91
2022-07-25T04:59:37.647Z,100778.44
2022-07-25T05:02:04.793Z,100768.56
2022-07-25T05:04:31.879Z,100774.19
2022-07-25T05:07:02.287Z,100774.38
2022-07-25T05:09:29.446Z,100762.38
2022-07-25T05:11:56.761Z,100765.25
2022-07-25T05:14:23.883Z,100760.25
2022-07-25T05:16:51.138Z,100762.88
2022-07-25T05:19:18.250Z,100754.72
2022-07-25T05:21:45.341Z,100752.44
2022-07-25T05:24:12.324Z,100749.03
2022-07-25T05:26:39.524Z,100748.38
2022-07-25T05:29:06.713Z,100747.84
2022-07-25T05:31:33.835Z,100752.09
2022-07-25T05:34:00.907Z,100740.97
2022-07-25T05:36:28.091Z,100744.44
2022-07-25T05:38:55.178Z,100743.41
2022-07-25T05:41:22.583Z,100737.94
2022-07-25T05:43:49.681Z,100734.13
2022-07-25T05:46:17.052Z,100739.06
2022-07-25T05:48:45.456Z,100732.84
2022-07-25T05:51:13.400Z,100728.56
2022-07-25T05:53:40.594Z,100726.69
2022-07-25T05:56:08.969Z,100726.81
2022-07-25T05:58:37.350Z,100725.00
2022-07-25T06:01:04.369Z,100721.06
2022-07-25T06:03:31.447Z,100715.91
2022-07-25T06:05:58.578Z,100716.25
2022-07-25T06:08:28.723Z,100714.66
2022-07-25T06:10:59.916Z,100727.13
2022-07-25T06:13:28.094Z,100718.22
2022-07-25T06:15:55.672Z,100712.56
2022-07-25T06:18:24.646Z,100710.16
2022-07-25T06:20:52.560Z,100705.97
2022-07-25T06:23:20.242Z,100698.56
2022-07-25T06:25:50.503Z,100698.16
2022-07-25T06:28:18.410Z,100694.81
2022-07-25T06:30:46.070Z,100692.56
2022-07-25T06:33:13.810Z,100698.84
2022-07-25T06:35:40.734Z,100687.09
2022-07-25T06:38:07.772Z,100684.22
2022-07-25T06:40:34.925Z,100678.94
2022-07-25T06:43:02.023Z,100683.22
2022-07-25T06:45:29.119Z,100676.53
2022-07-25T06:47:56.267Z,100672.94
2022-07-25T06:50:23.453Z,100668.97
2022-07-25T06:52:50.602Z,100669.88
2022-07-25T06:55:17.882Z,100667.00
2022-07-25T06:57:45.243Z,100666.06
2022-07-25T07:00:14.929Z,100655.94
2022-07-25T07:03:01.503Z,100652.06
2022-07-25T07:05:34.529Z,100650.03
2022-07-25T07:08:02.780Z,100649.66
2022-07-25T07:10:31.782Z,100643.03
2022-07-25T07:13:13.481Z,100634.56
2022-07-25T07:15:49.457Z,100631.63
2022-07-25T07:18:21.003Z,100632.59
2022-07-25T07:20:48.765Z,100630.69
2022-07-25T07:23:16.865Z,100622.84
2022-07-25T07:25:47.463Z,100630.31
2022-07-25T07:28:16.562Z,100622.19
2022-07-25T07:31:14.484Z,100623.72
2022-07-25T07:33:31.115Z,100623.41
2022-07-25T07:35:58.285Z,100623.63
2022-07-25T07:38:26.653Z,100618.22
2022-07-25T07:40:54.480Z,100625.69
2022-07-25T07:43:25.050Z,100612.81
2022-07-25T07:45:56.788Z,100620.97
2022-07-25T07:48:23.842Z,100614.38
2022-07-25T07:50:50.868Z,100614.44
2022-07-25T07:53:17.923Z,100610.09
2022-07-25T07:55:55.422Z,100607.78
2022-07-25T07:58:22.660Z,100610.66
2022-07-25T08:00:52.187Z,100606.34
2022-07-25T08:03:21.929Z,100602.91
2022-07-25T08:05:51.956Z,100598.13
2022-07-25T08:08:19.979Z,100598.22
2022-07-25T08:10:49.837Z,100593.69
2022-07-25T08:13:22.929Z,100588.66
2022-07-25T08:16:00.036Z,100587.31
2022-07-25T08:18:32.966Z,100578.56
2022-07-25T08:21:06.507Z,100589.97
2022-07-25T08:23:39.066Z,100583.41
2022-07-25T08:26:07.648Z,100574.78
2022-07-25T08:28:34.700Z,100581.09
2022-07-25T08:31:01.959Z,100570.19
2022-07-25T08:33:28.976Z,100576.50
2022-07-25T08:35:59.007Z,100581.41
2022-07-25T08:38:29.461Z,100570.63
2022-07-25T08:40:58.628Z,100561.91
2022-07-25T08:43:25.731Z,100565.50
2022-07-25T08:45:55.660Z,100568.75
2022-07-25T08:48:27.273Z,100572.38
2022-07-25T08:50:59.139Z,100556.75
2022-07-25T08:53:35.539Z,100558.22
2022-07-25T08:56:14.531Z,100561.47
2022-07-25T08:58:44.915Z,100555.19
2022-07-25T09:01:14.669Z,100546.88
2022-07-25T09:03:43.988Z,100543.47
2022-07-25T09:06:23.041Z,100535.84
2022-07-25T09:08:57.017Z,100531.25
2022-07-25T09:11:36.584Z,100538.25
2022-07-25T09:14:14.765Z,100526.31
2022-07-25T09:16:45.477Z,100522.81
2022-07-25T09:19:19.413Z,100528.06
2022-07-25T09:22:04.927Z,100523.00
2022-07-25T09:24:34.070Z,100521.88
2022-07-25T09:27:12.512Z,100514.97
2022-07-25T09:29:45.495Z,100518.81
2022-07-25T09:32:23.025Z,100501.59
2022-07-25T09:34:51.487Z,100499.03
2022-07-25T09:37:27.369Z,100497.28
2022-07-25T09:39:54.615Z,100490.28
2022-07-25T09:42:28.447Z,100484.88
2022-07-25T09:45:12.711Z,100476.03
2022-07-25T09:48:01.258Z,100479.31
2022-07-25T09:50:31.565Z,100474.97
2022-07-25T09:53:02.696Z,100473.63
2022-07-25T09:55:31.599Z,100470.84
2022-07-25T09:57:59.028Z,100458.16
2022-07-25T10:00:31.359Z,100455.75
2022-07-25T10:03:44.927Z,100455.00
2022-07-25T10:06:40.961Z,100447.56
2022-07-25T10:09:15.262Z,100447.06
2022-07-25T10:12:19.446Z,100444.00
2022-07-25T10:15:12.869Z,100441.34
2022-07-25T10:17:42.269Z,100431.91
2022-07-25T10:20:11.254Z,100428.25
2022-07-25T10:22:57.381Z,100427.19
2022-07-25T10:25:25.200Z,100418.66
2022-07-25T10:28:04.108Z,100415.56
2022-07-25T10:30:39.613Z,100413.75
2022-07-25T10:33:19.899Z,100397.88
2022-07-25T10:35:47.513Z,100400.56
2022-07-25T10:38:14.650Z,100396.91
2022-07-25T10:40:48.621Z,100396.91
2022-07-25T10:43:22.988Z,100399.81
2022-07-25T10:45:59.381Z,100383.56
2022-07-25T10:48:32.396Z,100386.25
2022-07-25T10:51:08.147Z,100376.75
2022-07-25T10:53:47.376Z,100369.22
2022-07-25T10:56:22.124Z,100363.88
2022-07-25T10:58:54.162Z,100356.75
2022-07-25T11:01:34.678Z,100360.19
2022-07-25T11:04:15.683Z,100355.34
2022-07-25T11:06:43.618Z,100359.81
2022-07-25T11:09:29.116Z,100352.97
2022-07-25T11:11:59.896Z,100348.63
2022-07-25T11:14:37.527Z,100337.78
2022-07-25T11:17:22.557Z,100339.25
2022-07-25T11:20:05.787Z,100349.34
2022-07-25T11:22:37.215Z,100348.63
2022-07-25T11:25:14.494Z,100329.44
2022-07-25T11:27:41.629Z,100321.63
2022-07-25T11:30:20.001Z,100336.50
2022-07-25T11:32:58.587Z,100322.38
2022-07-25T11:35:32.238Z,100311.25
2022-07-25T11:38:03.920Z,100307.63
2022-07-25T11:40:33.693Z,100317.84
2022-07-25T11:43:01.163Z,100313.63
2022-07-25T11:45:34.495Z,100302.03
2022-07-25T11:48:15.135Z,100299.06
2022-07-25T11:50:46.266Z,100301.97
2022-07-25T11:53:17.285Z,100299.06
2022-07-25T11:55:44.895Z,100293.78
2022-07-25T11:58:14.999Z,100282.78
2022-07-25T12:00:50.312Z,100293.69
2022-07-25T12:03:23.357Z,100290.63
2022-07-25T12:05:50.969Z,100286.72
2022-07-25T12:08:23.204Z,100279.25
2022-07-25T12:10:51.653Z,100270.53
2022-07-25T12:13:27.219Z,100266.06
2022-07-25T12:15:59.232Z,100261.81
2022-07-25T12:18:28.072Z,100256.00
2022-07-25T12:20:55.448Z,100252.53
2022-07-25T12:23:22.816Z,100257.34
2022-07-25T12:25:51.125Z,100243.16
2022-07-25T12:28:18.468Z,100249.16
2022-07-25T12:30:52.892Z,100241.16
2022-07-25T12:33:23.582Z,100233.69
2022-07-25T12:35:50.748Z,100220.88
2022-07-25T12:38:17.705Z,100220.44
2022-07-25T12:40:44.872Z,100220.28
2022-07-25T12:43:11.797Z,100213.59
2022-07-25T12:45:40.146Z,100218.31
2022-07-25T12:48:07.369Z,100222.22
2022-07-25T12:50:34.272Z,100209.28
2022-07-25T12:53:02.117Z,100209.25
2022-07-25T12:55:29.187Z,100200.16
2022-07-25T12:57:56.339Z,100211.97
2022-07-25T13:00:24.088Z,100205.84
2022-07-25T13:02:55.878Z,100200.75
2022-07-25T13:05:25.957Z,100202.31
2022-07-25T13:07:53.425Z,100199.44
2022-07-25T13:10:21.326Z,100201.63
2022-07-25T13:12:49.280Z,100189.69
2022-07-25T13:15:18.225Z,100186.72
2022-07-25T13:17:45.290Z,100183.75
2022-07-25T13:20:12.579Z,100181.00
2022-07-25T13:22:39.631Z,100186.22
2022-07-25T13:25:07.457Z,100174.56
2022-07-25T13:27:34.597Z,100165.94
2022-07-25T13:30:01.571Z,100165.31
2022-07-25T13:32:28.817Z,100154.09
2022-07-25T13:34:55.879Z,100162.13
2022-07-25T13:37:23.516Z,100151.47
2022-07-25T13:39:50.630Z,100142.69
2022-07-25T13:42:18.298Z,100150.31
2022-07-25T13:44:45.379Z,100143.56
2022-07-25T13:47:12.562Z,100143.69
2022-07-25T13:49:39.576Z,100134.63
2022-07-25T13:52:06.949Z,100148.38
2022-07-25T13:54:34.086Z,100142.84
2022-07-25T13:57:03.552Z,100133.38
2022-07-25T13:59:30.956Z,100131.22
2022-07-25T14:01:58.161Z,100132.03
2022-07-25T14:04:25.329Z,100118.22
2022-07-25T14:06:52.434Z,100110.03
2022-07-25T14:09:23.034Z,100115.91
2022-07-25T14:11:50.372Z,100108.22
2022-07-25T14:14:17.849Z,100102.78
2022-07-25T14:16:45.876Z,100104.66
2022-07-25T14:19:12.917Z,100108.06
2022-07-25T14:21:39.990Z,100107.41
2022-07-25T14:24:07.545Z,100099.88
2022-07-25T14:26:35.632Z,100100.88
2022-07-25T14:29:03.375Z,100094.75
2022-07-25T14:31:32.154Z,100106.63
2022-07-25T14:33:59.265Z,100093.50
2022-07-25T14:36:26.175Z,100092.38
2022-07-25T14:38:53.312Z,100099.28
2022-07-25T14:41:20.252Z,100096.47
2022-07-25T14:43:48.370Z,100072.44
2022-07-25T14:46:15.991Z,100073.53
2022-07-25T14:48:43.330Z,100074.16
2022-07-25T14:51:10.385Z,100061.00
2022-07-25T14:53:37.615Z,100069.38
2022-07-25T14:56:06.769Z,100070.97
2022-07-25T14:58:34.250Z,100062.31
2022-07-25T15:01:02.118Z,100052.06
2022-07-25T15:03:29.260Z,100048.06
2022-07-25T15:05:56.530Z,100049.13
2022-07-25T15:08:23.914Z,100043.44
2022-07-25T15:10:51.111Z,100029.50
2022-07-25T15:13:30.931Z,100031.50
2022-07-25T15:16:00.385Z,100025.19
2022-07-25T15:18:27.970Z,100031.47
2022-07-25T15:20:55.494Z,100019.41
2022-07-25T15:23:25.108Z,100023.34
2022-07-25T15:26:01.645Z,100019.59
2022-07-25T15:28:29.606Z,100008.31
2022-07-25T15:30:56.596Z,100011.97
2022-07-25T15:33:23.696Z,100011.75
2022-07-25T15:35:50.891Z,100001.97
2022-07-25T15:38:18.715Z,99996.72
2022-07-25T15:40:47.483Z,99992.94
2022-07-25T15:43:14.514Z,99997.00
2022-07-25T15:45:46.048Z,99994.69
2022-07-25T15:48:17.025Z,99987.13
2022-07-25T15:50:51.805Z,99981.09
2022-07-25T15:53:19.244Z,99973.16
2022-07-25T15:55:46.472Z,99969.25
2022-07-25T15:58:13.658Z,99957.56
2022-07-25T16:00:41.362Z,99955.75
2022-07-25T16:03:09.306Z,99950.22
2022-07-25T16:05:38.796Z,99947.09
2022-07-25T16:08:08.715Z,99944.97
2022-07-25T16:10:38.139Z,99940.34
2022-07-25T16:13:05.325Z,99938.09
2022-07-25T16:15:32.377Z,99932.31
2022-07-25T16:18:02.663Z,99934.50
2022-07-25T16:20:33.361Z,99924.13
2022-07-25T16:23:01.414Z,99926.56
2022-07-25T16:25:30.582Z,99922.00
2022-07-25T16:27:59.923Z,99925.56
2022-07-25T16:30:28.446Z,99921.75
2022-07-25T16:32:55.757Z,99921.81
2022-07-25T16:35:23.357Z,99922.38
2022-07-25T16:37:51.459Z,99923.72
2022-07-25T16:40:18.633Z,99920.13
2022-07-25T16:42:49.697Z,99919.97
2022-07-25T16:45:16.786Z,99918.91
2022-07-25T16:47:44.971Z,99917.09
2022-07-25T16:50:12.064Z,99915.63
2022-07-25T16:52:39.271Z,99911.41
2022-07-25T16:55:06.727Z,99910.38
2022-07-25T16:57:33.798Z,99909.78
2022-07-25T17:00:01.043Z,99906.44
2022-07-25T17:02:29.848Z,99921.41
2022-07-25T17:04:58.380Z,99949.22
2022-07-25T17:07:26.593Z,99958.03
2022-07-25T17:09:53.914Z,99981.16
2022-07-25T17:12:21.855Z,100000.25
2022-07-25T17:14:49.236Z,100034.94
2022-07-25T17:17:16.210Z,100083.00
2022-07-25T17:19:43.574Z,100123.88
2022-07-25T17:22:11.081Z,100142.06
2022-07-25T17:24:40.738Z,100134.13
2022-07-25T17:27:09.787Z,100103.25
2022-07-25T17:29:37.986Z,100096.72
2022-07-25T17:32:08.641Z,100101.91
2022-07-25T17:34:35.722Z,100110.88
2022-07-25T17:37:03.265Z,100127.50
2022-07-25T17:39:34.934Z,100154.41
2022-07-25T17:42:02.510Z,100143.56
2022-07-25T17:44:29.665Z,100124.66
2022-07-25T17:46:56.727Z,100155.03
2022-07-25T17:49:23.940Z,100166.31
2022-07-25T17:51:51.577Z,100201.81
2022-07-25T17:54:18.693Z,100182.00
2022-07-25T17:56:45.948Z,100163.84
2022-07-25T17:59:13.797Z,100137.34
2022-07-25T18:01:41.113Z,100119.19
2022-07-25T18:04:08.947Z,100099.38
2022-07-25T18:06:36.796Z,100099.66
2022-07-25T18:09:04.556Z,100111.03
2022-07-25T18:11:32.216Z,100117.38
2022-07-25T18:13:59.728Z,100132.78
2022-07-25T18:16:27.280Z,100131.25
2022-07-25T18:18:55.264Z,100124.47
2022-07-25T18:21:23.871Z,100132.03
2022-07-25T18:23:52.329Z,100126.78
2022-07-25T18:26:20.646Z,100122.25
2022-07-25T18:28:48.297Z,100125.56
2022-07-25T18:31:15.445Z,100106.03
2022-07-25T18:33:42.707Z,100114.13
2022-07-25T18:36:09.949Z,100112.09
2022-07-25T18:38:37.793Z,100113.00
2022-07-25T18:41:34.670Z,100094.19
2022-07-25T18:43:53.709Z,100110.91
2022-07-25T18:46:21.582Z,100098.66
2022-07-25T18:48:49.026Z,100102.78
2022-07-25T18:51:16.526Z,100107.94
2022-07-25T18:53:47.943Z,100114.41
2022-07-25T18:56:17.278Z,100109.91
2022-07-25T18:58:45.436Z,100112.94
2022-07-25T19:01:12.913Z,100109.75
2022-07-25T19:03:40.880Z,100105.84
2022-07-25T19:06:10.435Z,100112.34
2022-07-25T19:08:38.343Z,100105.34
2022-07-25T19:11:06.509Z,100104.41
2022-07-25T19:13:51.121Z,100105.63
2022-07-25T19:16:19.454Z,100100.06
2022-07-25T19:18:47.413Z,100096.31
2022-07-25T19:21:15.510Z,100095.66
2022-07-25T19:23:49.724Z,100102.44
2022-07-25T19:26:19.921Z,100101.25
2022-07-25T19:28:48.720Z,100108.53
2022-07-25T19:31:16.004Z,100111.91
2022-07-25T19:33:45.663Z,100103.97
2022-07-25T19:36:14.441Z,100105.81
2022-07-25T19:38:41.676Z,100114.13
2022-07-25T19:41:09.205Z,100101.00
2022-07-25T19:43:36.277Z,100099.63
2022-07-25T19:46:03.369Z,100098.47
2022-07-25T19:48:30.565Z,100103.88
2022-07-25T19:50:57.881Z,100096.66
2022-07-25T19:53:28.580Z,100099.13
2022-07-25T19:55:56.449Z,100108.50
2022-07-25T19:58:23.713Z,100100.44
2022-07-25T20:00:50.987Z,100103.50
2022-07-25T20:03:23.458Z,100115.09
2022-07-25T20:05:52.277Z,100210.16
2022-07-25T20:08:19.470Z,100166.31
2022-07-25T20:10:48.442Z,100178.47
2022-07-25T20:13:15.846Z,100178.06
2022-07-25T20:15:43.026Z,100168.34
2022-07-25T20:18:10.130Z,100186.09
2022-07-25T20:20:37.489Z,100176.00
2022-07-25T20:23:04.748Z,100182.78
2022-07-25T20:25:32.033Z,100190.53
2022-07-25T20:27:59.523Z,100188.13
2022-07-25T20:30:29.244Z,100197.75
2022-07-25T20:33:00.170Z,100207.91
2022-07-25T20:35:34.439Z,100214.81
2022-07-25T20:38:02.732Z,100217.66
2022-07-25T20:40:37.883Z,100219.63
2022-07-25T20:43:09.715Z,100222.47
2022-07-25T20:45:37.416Z,100226.88
2022-07-25T20:48:06.227Z,100241.00
2022-07-25T20:50:33.394Z,100259.13
2022-07-25T20:53:00.632Z,100262.78
2022-07-25T20:55:28.526Z,100274.03
2022-07-25T20:57:55.521Z,100260.31
2022-07-25T21:00:25.761Z,100267.97
2022-07-25T21:05:21.472Z,100289.66
2022-07-25T21:07:48.962Z,100288.88
2022-07-25T21:10:16.830Z,100303.38
2022-07-25T21:12:45.349Z,100311.44
2022-07-25T21:15:13.162Z,100327.19
2022-07-25T21:17:41.829Z,100350.09
2022-07-25T21:20:13.101Z,100353.66
2022-07-25T21:22:42.185Z,100359.69
2022-07-25T21:25:11.727Z,100360.50
2022-07-25T21:27:40.247Z,100360.13
2022-07-25T21:30:11.923Z,100367.41
2022-07-25T21:32:41.754Z,100367.06
2022-07-25T21:35:09.921Z,100353.38
2022-07-25T21:37:37.173Z,100352.97
2022-07-25T21:40:05.124Z,100386.03
2022-07-25T21:42:32.314Z,100386.03
2022-07-25T21:44:59.385Z,100389.66
2022-07-25T21:47:26.528Z,100384.03
2022-07-25T21:50:13.193Z,100362.66
2022-07-25T21:52:43.327Z,100337.28
2022-07-25T21:55:10.583Z,100340.13
2022-07-25T21:57:37.787Z,100330.84
2022-07-25T22:00:12.347Z,100329.22
2022-07-25T22:02:43.462Z,100328.44
2022-07-25T22:05:17.172Z,100328.84
2022-07-25T22:07:47.462Z,100330.06
2022-07-25T22:10:18.964Z,100334.47
2022-07-25T22:12:47.034Z,100338.88
2022-07-25T22:15:15.284Z,100337.69
2022-07-25T22:17:48.507Z,100336.06
2022-07-25T22:20:17.751Z,100346.47
2022-07-25T22:22:46.994Z,100365.78
2022-07-25T22:25:15.007Z,100373.84
2022-07-25T22:27:42.321Z,100381.06
2022-07-25T22:30:14.866Z,100367.00
2022-07-25T22:32:45.575Z,100377.03
2022-07-25T22:35:13.302Z,100385.09
2022-07-25T22:37:40.451Z,100365.38
2022-07-25T22:40:08.169Z,100370.59
2022-07-25T22:42:35.307Z,100366.16
2022-07-25T22:45:02.722Z,100369.38
2022-07-25T22:47:29.723Z,100366.94
2022-07-25T22:49:56.799Z,100377.81
2022-07-25T22:52:24.136Z,100376.59
2022-07-25T22:54:51.313Z,100381.41
2022-07-25T22:57:18.330Z,100395.09
2022-07-25T22:59:49.291Z,100411.59
2022-07-25T23:02:16.647Z,100428.44
2022-07-25T23:04:44.108Z,100434.47
2022-07-25T23:07:11.268Z,100395.06
2022-07-25T23:09:38.370Z,100377.78
2022-07-25T23:12:08.358Z,100410.72
2022-07-25T23:14:35.789Z,100429.59
2022-07-25T23:17:17.885Z,100425.63
2022-07-25T23:19:51.769Z,100429.66
2022-07-25T23:22:22.860Z,100438.09
2022-07-25T23:24:50.627Z,100451.41
2022-07-25T23:27:18.569Z,100455.09
2022-07-25T23:29:45.612Z,100444.25
2022-07-25T23:32:12.778Z,100436.59
2022-07-25T23:34:40.325Z,100452.69
2022-07-25T23:37:07.804Z,100451.84
2022-07-25T23:39:35.023Z,100457.00
2022-07-25T23:42:03.114Z,100474.63
2022-07-25T23:44:30.407Z,100477.81
2022-07-25T23:46:59.930Z,100492.69
2022-07-25T23:49:28.742Z,100495.47
2022-07-25T23:51:57.305Z,100508.69
2022-07-25T23:54:25.246Z,100493.03
2022-07-25T23:56:53.363Z,100479.44
2022-07-25T23:59:20.924Z,100465.78
